Time;durP1;ratioP1;P1;durP2;ratioP2;P2;SDS_P1;SDS_P2;PMS_P1;PMS_P2;Temp;Humidity;BMP_temperature;BMP_pressure;BME280_temperature;BME280_humidity;BME280_pressure;Samples;Min_cycle;Max_cycle;Signal;HPM_P1;HPM_P2
2021/03/13 00:01:11;;;;;;;84.82;35.58;;;;;;;0.28;95.50;98868.91;3521184;28;20051;-60
2021/03/13 00:02:53;;;;;;;77.15;33.95;;;;;;;0.28;95.70;98867.25;3522921;28;20044;-60
2021/03/13 00:04:34;;;;;;;77.03;34.33;;;;;;;0.28;95.48;98863.81;3517443;28;20412;-60
2021/03/13 00:06:17;;;;;;;82.90;34.97;;;;;;;0.31;95.65;98869.94;3509770;28;20079;-60
2021/03/13 00:07:59;;;;;;;76.20;33.17;;;;;;;0.33;95.88;98873.41;3519474;28;20077;-60
2021/03/13 00:09:40;;;;;;;77.30;34.88;;;;;;;0.34;95.67;98871.72;3521796;28;20055;-60
2021/03/13 00:11:22;;;;;;;88.00;36.72;;;;;;;0.34;95.67;98864.94;3519920;28;20082;-60
2021/03/13 00:13:03;;;;;;;86.25;35.85;;;;;;;0.36;95.79;98872.66;3519681;28;20525;-60
2021/03/13 00:14:45;;;;;;;80.05;36.53;;;;;;;0.36;96.00;98870.13;3522820;28;20051;-60
2021/03/13 00:16:26;;;;;;;85.00;35.20;;;;;;;0.36;95.93;98870.97;3520260;28;20394;-60
2021/03/13 00:18:09;;;;;;;94.30;38.33;;;;;;;0.34;95.61;98870.03;3523684;28;20051;-60
2021/03/13 00:19:51;;;;;;;90.22;38.55;;;;;;;0.34;95.67;98874.28;3512766;28;20052;-60
2021/03/13 00:21:32;;;;;;;83.28;38.55;;;;;;;0.33;95.64;98864.88;3511581;28;20051;-60
2021/03/13 00:23:14;;;;;;;72.93;32.90;;;;;;;0.33;95.85;98863.22;3519913;28;20058;-60
2021/03/13 00:24:55;;;;;;;92.32;38.80;;;;;;;0.32;95.85;98869.13;3518574;28;20137;-60
2021/03/13 00:26:37;;;;;;;84.35;35.42;;;;;;;0.33;95.91;98859.78;3522478;28;20044;-60
2021/03/13 00:28:18;;;;;;;79.50;32.75;;;;;;;0.35;96.04;98865.84;3520015;28;20417;-60
2021/03/13 00:29:59;;;;;;;72.90;32.97;;;;;;;0.36;95.97;98870.13;3523575;28;20075;-60
2021/03/13 00:31:41;;;;;;;93.05;38.55;;;;;;;0.37;96.03;98870.19;3518496;28;20482;-60
2021/03/13 00:33:25;;;;;;;81.28;34.78;;;;;;;0.39;95.87;98870.25;3523007;28;20048;-60
2021/03/13 00:35:08;;;;;;;77.78;36.28;;;;;;;0.38;95.83;98869.38;3510517;28;20058;-60
2021/03/13 00:36:49;;;;;;;81.38;35.38;;;;;;;0.37;95.99;98870.19;3512984;28;20048;-60
2021/03/13 00:38:31;;;;;;;89.38;36.88;;;;;;;0.37;95.79;98866.75;3522813;28;20055;-61
2021/03/13 00:40:16;;;;;;;88.63;36.65;;;;;;;0.39;95.90;98863.44;3516412;28;20048;-60
2021/03/13 00:41:57;;;;;;;84.65;33.85;;;;;;;0.38;95.83;98866.84;3509543;28;20109;-60
2021/03/13 00:43:38;;;;;;;88.25;35.38;;;;;;;0.39;96.11;98871.09;3519485;28;20429;-60
2021/03/13 00:45:22;;;;;;;56.38;28.50;;;;;;;0.41;95.84;98866.06;3522404;28;20044;-60
2021/03/13 00:47:03;;;;;;;80.80;34.75;;;;;;;0.42;96.00;98868.69;3520657;28;20538;-60
2021/03/13 00:48:45;;;;;;;73.15;33.65;;;;;;;0.44;96.06;98871.31;3520360;28;20051;-60
2021/03/13 00:50:30;;;;;;;77.10;34.00;;;;;;;0.44;95.87;98868.75;3509187;28;20043;-60
2021/03/13 00:52:11;;;;;;;77.45;34.45;;;;;;;0.47;95.93;98870.53;3515010;28;20044;-60
2021/03/13 00:53:53;;;;;;;84.25;34.72;;;;;;;0.47;95.93;98868.88;3523654;28;20424;-60
2021/03/13 00:55:35;;;;;;;84.90;36.33;;;;;;;0.51;96.32;98880.09;3521622;28;20058;-60
2021/03/13 00:57:16;;;;;;;69.28;29.95;;;;;;;0.53;96.28;98886.13;3523315;28;20052;-60
2021/03/13 00:58:57;;;;;;;75.93;32.55;;;;;;;0.54;95.96;98875.97;3522267;28;20044;-59
2021/03/13 01:00:39;;;;;;;64.60;28.35;;;;;;;0.58;95.80;98876.97;3522246;28;20044;-59
2021/03/13 01:02:21;;;;;;;60.42;26.63;;;;;;;0.61;96.04;98872.84;3511740;28;20055;-59
2021/03/13 01:04:03;;;;;;;63.60;30.52;;;;;;;0.64;96.11;98874.66;3517098;28;20082;-60
2021/03/13 01:05:44;;;;;;;68.85;30.67;;;;;;;0.65;96.09;98881.50;3525741;28;20047;-60
2021/03/13 01:07:25;;;;;;;65.88;30.45;;;;;;;0.67;95.92;98879.03;3522495;28;20051;-60
2021/03/13 01:09:07;;;;;;;54.85;24.40;;;;;;;0.68;95.97;98873.94;3523476;28;20048;-59
2021/03/13 01:10:50;;;;;;;66.95;30.52;;;;;;;0.69;95.63;98878.25;3522912;28;20043;-60
2021/03/13 01:12:31;;;;;;;65.03;29.55;;;;;;;0.70;95.71;98880.00;3521979;28;20051;-59
2021/03/13 01:14:13;;;;;;;59.70;26.67;;;;;;;0.70;95.74;98876.56;3524103;28;20047;-59
2021/03/13 01:15:54;;;;;;;62.47;29.75;;;;;;;0.68;95.74;98873.94;3520984;28;20071;-59
2021/03/13 01:17:35;;;;;;;67.43;31.60;;;;;;;0.72;95.64;98890.25;3525436;28;20097;-59
2021/03/13 01:19:18;;;;;;;53.15;24.00;;;;;;;0.72;95.54;98888.59;3520939;28;20143;-59
2021/03/13 01:20:59;;;;;;;54.25;24.80;;;;;;;0.73;95.45;98897.97;3523006;28;20101;-59
2021/03/13 01:22:41;;;;;;;56.30;25.83;;;;;;;0.75;95.25;98906.59;3513373;28;20040;-59
2021/03/13 01:24:22;;;;;;;59.00;28.70;;;;;;;0.77;95.35;98911.75;3514691;28;20562;-59
2021/03/13 01:26:04;;;;;;;51.38;24.25;;;;;;;0.79;95.59;98912.69;3511593;28;20051;-59
2021/03/13 01:27:46;;;;;;;64.88;30.80;;;;;;;0.80;95.42;98916.97;3513677;28;20051;-59
2021/03/13 01:29:27;;;;;;;60.10;28.17;;;;;;;0.79;95.43;98911.00;3511387;28;20083;-59
2021/03/13 01:31:08;;;;;;;62.03;28.10;;;;;;;0.82;95.24;98917.03;3521596;28;20511;-59
2021/03/13 01:32:51;;;;;;;61.72;29.20;;;;;;;0.82;95.14;98922.16;3523936;28;20549;-58
2021/03/13 01:34:33;;;;;;;69.15;29.08;;;;;;;0.82;95.50;98924.69;3512119;28;20048;-59
2021/03/13 01:36:15;;;;;;;85.45;34.88;;;;;;;0.82;95.26;98923.00;3513227;28;20048;-59
2021/03/13 01:37:56;;;;;;;89.47;35.90;;;;;;;0.83;95.40;98921.34;3525393;28;20075;-58
2021/03/13 01:39:37;;;;;;;87.20;37.03;;;;;;;0.82;94.95;98925.56;3521617;28;20519;-58
2021/03/13 01:41:19;;;;;;;77.47;33.30;;;;;;;0.81;95.30;98928.94;3525069;28;20048;-59
2021/03/13 01:43:00;;;;;;;67.43;26.65;;;;;;;0.82;95.21;98929.81;3521859;28;20054;-58
2021/03/13 01:44:42;;;;;;;72.78;32.97;;;;;;;0.80;95.31;98922.94;3524171;28;20048;-58
2021/03/13 01:46:23;;;;;;;80.13;34.63;;;;;;;0.79;95.29;98938.22;3522627;28;20597;-58
2021/03/13 01:48:05;;;;;;;72.80;34.35;;;;;;;0.78;94.98;98934.78;3520666;28;20075;-58
2021/03/13 01:49:49;;;;;;;67.30;27.40;;;;;;;0.78;95.40;98934.78;3511318;28;20048;-57
2021/03/13 01:51:31;;;;;;;63.10;27.50;;;;;;;0.80;95.17;98937.41;3518011;28;20051;-57
2021/03/13 01:53:13;;;;;;;60.38;28.92;;;;;;;0.82;95.39;98940.00;3525041;28;20048;-58
2021/03/13 01:54:55;;;;;;;81.30;33.70;;;;;;;0.82;95.15;98943.44;3520799;28;20137;-57
2021/03/13 01:56:38;;;;;;;74.18;32.88;;;;;;;0.82;95.22;98940.88;3524211;28;20093;-56
2021/03/13 01:58:20;;;;;;;73.20;32.15;;;;;;;0.81;95.45;98936.59;3511925;28;20061;-56
2021/03/13 02:00:07;;;;;;;63.88;29.58;;;;;;;0.81;95.15;98934.03;3513746;28;20142;-57
2021/03/13 02:01:49;;;;;;;69.68;30.80;;;;;;;0.81;95.54;98941.72;3524982;28;20504;-57
2021/03/13 02:03:30;;;;;;;66.38;31.60;;;;;;;0.83;95.64;98944.31;3520337;28;20043;-55
2021/03/13 02:05:17;;;;;;;58.00;25.85;;;;;;;0.83;95.45;98941.78;3522569;28;20048;-56
2021/03/13 02:07:04;;;;;;;66.60;28.48;;;;;;;0.84;95.54;98951.16;3512248;28;20455;-57
2021/03/13 02:08:52;;;;;;;58.65;27.15;;;;;;;0.84;95.63;98946.91;3513589;28;20100;-57
2021/03/13 02:10:42;;;;;;;57.33;27.75;;;;;;;0.85;95.28;98961.44;3511017;28;20051;-57
2021/03/13 02:12:35;;;;;;;54.08;24.27;;;;;;;0.88;95.30;98955.59;3518800;28;20527;-57
2021/03/13 02:14:28;;;;;;;62.15;28.83;;;;;;;0.89;95.39;98963.28;3523059;28;20100;-57
2021/03/13 02:16:20;;;;;;;53.10;24.90;;;;;;;0.90;95.18;98964.19;3511490;28;20081;-58
2021/03/13 02:18:08;;;;;;;69.03;31.17;;;;;;;0.91;95.53;98963.34;3514903;28;20060;-57
2021/03/13 02:20:13;;;;;;;64.60;28.30;;;;;;;0.90;95.51;98964.19;3525024;28;20055;-57
2021/03/13 02:22:01;;;;;;;55.38;25.13;;;;;;;0.89;95.52;98973.50;3521377;28;20052;-57
2021/03/13 02:24:03;;;;;;;62.70;28.30;;;;;;;0.91;95.30;98976.13;3520162;28;20079;-58
2021/03/13 02:25:54;;;;;;;57.90;28.35;;;;;;;0.91;95.28;98978.69;3510874;28;20052;-58
2021/03/13 02:27:41;;;;;;;69.97;32.10;;;;;;;0.90;95.39;98970.16;3521231;28;20086;-58
2021/03/13 02:29:33;;;;;;;53.72;25.38;;;;;;;0.90;95.53;98976.94;3522761;28;20043;-58
2021/03/13 02:31:18;;;;;;;67.32;29.65;;;;;;;0.91;95.58;98983.78;3510504;28;20079;-59
2021/03/13 02:33:02;;;;;;;59.25;27.60;;;;;;;0.91;95.43;98982.13;3512531;28;20058;-59
2021/03/13 02:34:47;;;;;;;67.85;30.08;;;;;;;0.91;95.41;98979.56;3510768;28;20445;-59
2021/03/13 02:36:29;;;;;;;;;;;;;;;0.92;95.73;98981.28;3513521;28;20047;-60
2021/03/13 02:38:16;;;;;;;60.03;26.70;;;;;;;0.92;95.82;98981.28;3513095;28;19924;-59
2021/03/13 02:40:00;;;;;;;58.70;25.80;;;;;;;0.93;95.77;98977.94;3522275;28;20043;-59
2021/03/13 02:41:45;;;;;;;56.03;26.00;;;;;;;0.93;95.50;98983.06;3521431;28;20039;-59
2021/03/13 02:43:28;;;;;;;61.40;27.90;;;;;;;0.94;95.51;98971.16;3524811;28;20052;-60
2021/03/13 02:45:12;;;;;;;51.85;22.63;;;;;;;0.94;95.45;98971.16;3513823;28;20051;-60
2021/03/13 02:46:53;;;;;;;57.97;25.80;;;;;;;0.96;95.66;98970.38;3510789;28;20063;-60
2021/03/13 02:48:37;;;;;;;49.90;22.42;;;;;;;0.97;95.60;98973.84;3521890;28;20051;-60
2021/03/13 02:50:18;;;;;;;66.72;27.65;;;;;;;0.99;95.50;98972.22;3519546;28;20078;-60
2021/03/13 02:52:00;;;;;;;54.42;23.85;;;;;;;0.98;95.71;98971.34;3511055;28;20109;-60
2021/03/13 02:53:42;;;;;;;65.55;29.10;;;;;;;1.00;95.86;98973.97;3516589;28;20047;-61
2021/03/13 02:55:25;;;;;;;69.03;27.90;;;;;;;1.01;95.68;98972.28;3524498;28;20055;-61
2021/03/13 02:57:13;;;;;;;62.97;28.45;;;;;;;1.02;95.98;98974.00;3520766;28;20051;-61
2021/03/13 02:58:55;;;;;;;74.57;30.10;;;;;;;1.00;95.86;98971.41;3523456;28;20052;-61
2021/03/13 03:00:41;;;;;;;65.72;29.60;;;;;;;1.01;95.68;98975.69;3511132;28;20531;-62
2021/03/13 03:02:23;;;;;;;70.88;31.85;;;;;;;0.99;95.89;98973.06;3513121;28;20058;-62
2021/03/13 03:04:06;;;;;;;67.97;28.58;;;;;;;0.98;95.81;98976.47;3524237;28;20484;-62
2021/03/13 03:05:50;;;;;;;60.13;26.65;;;;;;;0.97;95.67;98974.69;3520569;28;20566;-63
2021/03/13 03:07:32;;;;;;;62.03;28.92;;;;;;;0.94;95.74;98969.47;3523883;28;20055;-64
2021/03/13 03:09:14;;;;;;;63.28;26.67;;;;;;;0.95;95.99;98970.34;3520177;28;20051;-63
2021/03/13 03:10:56;;;;;;;69.65;30.80;;;;;;;0.95;96.04;98965.25;3522069;28;20040;-65
2021/03/13 03:12:38;;;;;;;71.13;29.00;;;;;;;0.95;95.90;98962.69;3512016;28;20048;-64
2021/03/13 03:14:21;;;;;;;63.60;28.73;;;;;;;0.95;96.05;98960.13;3515142;28;20052;-64
2021/03/13 03:16:06;;;;;;;63.47;29.03;;;;;;;0.94;95.75;98968.59;3524194;28;20055;-64
2021/03/13 03:17:49;;;;;;;62.50;28.35;;;;;;;0.94;95.76;98982.22;3520735;28;20345;-65
2021/03/13 03:19:33;;;;;;;68.03;27.77;;;;;;;0.95;96.02;98980.56;3523433;28;20454;-65
2021/03/13 03:21:18;;;;;;;64.63;28.60;;;;;;;0.94;95.91;98966.03;3520460;28;20421;-65
2021/03/13 03:23:00;;;;;;;74.20;30.77;;;;;;;0.95;96.18;98972.91;3521196;28;20084;-65
2021/03/13 03:24:42;;;;;;;70.38;30.55;;;;;;;0.95;96.20;98973.78;3523830;28;20504;-66
2021/03/13 03:26:24;;;;;;;70.22;30.50;;;;;;;0.94;96.23;98972.00;3519144;28;20047;-65
2021/03/13 03:28:05;;;;;;;87.55;33.47;;;;;;;0.95;96.29;98981.44;3524046;28;20047;-65
2021/03/13 03:29:46;;;;;;;51.72;22.30;;;;;;;0.96;96.28;98984.84;3520402;28;20079;-65
2021/03/13 03:31:41;;;;;;;51.05;21.95;;;;;;;0.99;96.15;98980.72;3522049;28;20438;-65
2021/03/13 03:33:23;;;;;;;57.20;25.05;;;;;;;1.01;96.20;98988.47;3510960;28;20048;-65
2021/03/13 03:35:05;;;;;;;69.15;28.02;;;;;;;1.02;96.28;98977.44;3513379;28;20047;-65
2021/03/13 03:36:47;;;;;;;56.67;23.35;;;;;;;1.05;96.23;98985.22;3523961;28;20504;-65
2021/03/13 03:38:28;;;;;;;62.90;28.20;;;;;;;1.07;96.22;98998.03;3515555;28;20051;-66
2021/03/13 03:40:12;;;;;;;73.30;29.08;;;;;;;1.08;96.30;99004.91;3509534;28;20060;-66
2021/03/13 03:41:59;;;;;;;46.83;20.45;;;;;;;1.09;96.06;99004.97;3520510;28;20055;-66
2021/03/13 03:43:44;;;;;;;56.63;24.40;;;;;;;1.10;95.88;99001.59;3520446;28;20071;-65
2021/03/13 03:45:26;;;;;;;53.05;23.92;;;;;;;1.10;96.11;99009.25;3509751;28;20056;-66
2021/03/13 03:47:10;;;;;;;66.32;28.27;;;;;;;1.10;95.99;99013.50;3516210;28;20043;-66
2021/03/13 03:48:54;;;;;;;56.25;25.27;;;;;;;1.10;96.13;99016.06;3524056;28;20083;-66
2021/03/13 03:50:36;;;;;;;;;;;;;;;1.08;96.15;99012.56;3512742;28;20048;-66
2021/03/13 03:52:18;;;;;;;56.30;22.92;;;;;;;1.09;95.96;99011.75;3510813;28;19924;-66
2021/03/13 03:54:04;;;;;;;60.85;25.67;;;;;;;1.08;96.01;99008.31;3510871;28;20056;-67
2021/03/13 03:55:48;;;;;;;61.53;25.58;;;;;;;1.07;96.15;99006.59;3512596;28;20055;-67
2021/03/13 03:57:31;;;;;;;;;;;;;;;1.06;95.91;99007.41;3524216;28;20047;-67
2021/03/13 03:59:17;;;;;;;47.35;20.17;;;;;;;1.08;96.02;99008.31;3515685;28;19931;-67
2021/03/13 04:01:00;;;;;;;48.45;20.02;;;;;;;1.10;96.14;99010.94;3510727;28;20598;-68
2021/03/13 04:02:43;;;;;;;47.05;19.38;;;;;;;1.11;96.00;99017.81;3520940;28;20097;-68
2021/03/13 04:04:25;;;;;;;57.53;22.77;;;;;;;1.12;96.31;99017.84;3521586;28;20054;-68
2021/03/13 04:06:08;;;;;;;70.57;28.27;;;;;;;1.14;95.96;99020.47;3522297;28;20059;-67
2021/03/13 04:07:51;;;;;;;60.33;22.13;;;;;;;1.15;96.24;99020.53;3516503;28;20047;-68
2021/03/13 04:09:32;;;;;;;62.03;23.23;;;;;;;1.16;96.26;99022.28;3509930;28;20056;-68
2021/03/13 04:11:16;;;;;;;60.45;22.85;;;;;;;1.18;95.90;99024.91;3518924;28;20058;-67
2021/03/13 04:12:58;;;;;;;59.72;25.83;;;;;;;1.18;95.93;99022.34;3521320;28;20047;-67
2021/03/13 04:14:41;;;;;;;47.35;21.15;;;;;;;1.17;95.89;99021.47;3520391;28;20055;-67
2021/03/13 04:16:23;;;;;;;50.70;21.73;;;;;;;1.16;96.22;99022.28;3520810;28;20112;-67
2021/03/13 04:18:06;;;;;;;54.22;22.23;;;;;;;1.17;95.97;99018.91;3523332;28;20549;-67
2021/03/13 04:19:48;;;;;;;60.55;25.27;;;;;;;1.16;95.90;99026.53;3518746;28;20043;-67
2021/03/13 04:21:31;;;;;;;41.15;16.27;;;;;;;1.16;96.18;99029.97;3523517;28;20508;-67
2021/03/13 04:23:14;;;;;;;69.40;26.75;;;;;;;1.18;96.20;99027.47;3518560;28;20120;-67
2021/03/13 04:24:57;;;;;;;55.88;23.02;;;;;;;1.17;95.91;99025.72;3522502;28;20100;-66
2021/03/13 04:26:39;;;;;;;44.40;16.55;;;;;;;1.17;96.18;99025.72;3511213;28;20063;-66
2021/03/13 04:28:22;;;;;;;62.42;24.88;;;;;;;1.16;96.14;99022.28;3513160;28;20050;-65
2021/03/13 04:30:04;;;;;;;66.20;25.27;;;;;;;1.15;96.15;99027.34;3526116;28;20080;-65
2021/03/13 04:31:47;;;;;;;56.60;22.38;;;;;;;1.15;96.29;99028.19;3521175;28;20050;-65
2021/03/13 04:33:30;;;;;;;55.30;20.30;;;;;;;1.15;96.21;99030.75;3525387;28;20457;-65
2021/03/13 04:35:13;;;;;;;50.88;20.83;;;;;;;1.14;96.08;99031.59;3522865;28;20054;-64
2021/03/13 04:36:56;;;;;;;56.00;23.27;;;;;;;1.15;95.93;99035.00;3523081;28;20044;-64
2021/03/13 04:38:38;;;;;;;43.35;17.48;;;;;;;1.14;96.41;99033.25;3524746;28;20058;-64
2021/03/13 04:40:21;;;;;;;60.67;25.00;;;;;;;1.13;96.14;99026.41;3522118;28;20044;-64
2021/03/13 04:42:03;;;;;;;70.50;26.83;;;;;;;1.13;96.15;99034.06;3525814;28;20500;-64
2021/03/13 04:43:45;;;;;;;63.63;23.52;;;;;;;1.14;96.34;99040.91;3521009;28;20082;-64
2021/03/13 04:45:27;;;;;;;43.90;17.67;;;;;;;1.13;96.44;99034.94;3523975;28;20055;-64
2021/03/13 04:47:09;;;;;;;58.80;22.55;;;;;;;1.14;96.19;99040.91;3521971;28;20047;-65
2021/03/13 04:48:52;;;;;;;55.75;21.38;;;;;;;1.13;96.30;99037.50;3522331;28;20044;-65
2021/03/13 04:50:33;;;;;;;39.65;14.73;;;;;;;1.13;96.49;99040.03;3512222;28;20075;-65
2021/03/13 04:52:15;;;;;;;65.47;23.70;;;;;;;1.13;96.53;99045.16;3515429;28;20048;-65
2021/03/13 04:53:57;;;;;;;56.60;21.25;;;;;;;1.15;96.15;99045.22;3525880;28;20561;-64
2021/03/13 04:55:38;;;;;;;62.53;23.55;;;;;;;1.15;96.35;99053.75;3520764;28;20048;-65
2021/03/13 04:57:20;;;;;;;51.53;18.35;;;;;;;1.18;96.41;99053.88;3524911;28;20496;-65
2021/03/13 04:59:01;;;;;;;58.83;21.02;;;;;;;1.21;96.42;99057.34;3522948;28;20051;-64
2021/03/13 05:00:44;;;;;;;71.85;25.80;;;;;;;1.22;96.44;99054.88;3522119;28;20138;-65
2021/03/13 05:02:25;;;;;;;69.18;23.85;;;;;;;1.25;96.63;99059.22;3524266;28;20052;-64
2021/03/13 05:04:07;;;;;;;47.83;18.25;;;;;;;1.27;96.48;99055.06;3521991;28;20100;-65
2021/03/13 05:05:48;;;;;;;62.78;22.33;;;;;;;1.29;96.78;99063.66;3525453;28;20508;-65
2021/03/13 05:07:30;;;;;;;49.92;19.42;;;;;;;1.28;96.60;99067.00;3520802;28;20096;-65
2021/03/13 05:09:11;;;;;;;68.10;23.98;;;;;;;1.28;96.40;99067.00;3524108;28;20054;-64
2021/03/13 05:10:52;;;;;;;45.40;17.55;;;;;;;1.28;96.37;99072.13;3512988;28;20524;-64
2021/03/13 05:12:34;;;;;;;55.78;21.65;;;;;;;1.27;96.62;99073.81;3514252;28;20120;-66
2021/03/13 05:14:15;;;;;;;61.35;24.17;;;;;;;1.25;96.65;99072.88;3522568;28;20512;-65
2021/03/13 05:15:57;;;;;;;56.58;20.70;;;;;;;1.25;96.59;99069.44;3521953;28;20048;-66
2021/03/13 05:17:39;;;;;;;51.55;19.55;;;;;;;1.25;96.65;99069.44;3525446;28;20492;-65
2021/03/13 05:19:21;;;;;;;44.72;16.40;;;;;;;1.27;96.44;99072.97;3520704;28;20043;-66
2021/03/13 05:21:03;;;;;;;65.85;24.42;;;;;;;1.28;96.40;99079.78;3524445;28;20504;-68
2021/03/13 05:22:46;;;;;;;57.78;22.20;;;;;;;1.30;96.62;99079.06;3521690;28;20144;-67
2021/03/13 05:24:28;;;;;;;71.75;26.83;;;;;;;1.31;96.47;99082.47;3523102;28;20055;-67
2021/03/13 05:26:09;;;;;;;62.13;21.60;;;;;;;1.30;96.51;99081.63;3524047;28;20051;-67
2021/03/13 05:27:50;;;;;;;79.72;26.50;;;;;;;1.32;96.45;99081.69;3522050;28;20051;-68
2021/03/13 05:29:32;;;;;;;68.53;24.67;;;;;;;1.33;96.54;99081.72;3525275;28;20120;-65
2021/03/13 05:31:13;;;;;;;67.47;23.83;;;;;;;1.35;96.53;99085.22;3521581;28;20055;-66
2021/03/13 05:33:13;;;;;;;67.43;25.58;;;;;;;1.37;96.39;99088.72;3524176;28;20054;-66
2021/03/13 05:34:55;;;;;;;61.78;23.02;;;;;;;1.38;96.86;99087.03;3523400;28;20056;-65
2021/03/13 05:36:37;;;;;;;72.13;25.88;;;;;;;1.41;96.69;99093.94;3521451;28;20466;-64
2021/03/13 05:38:18;;;;;;;48.30;18.88;;;;;;;1.43;96.80;99092.34;3525258;28;20051;-65
2021/03/13 05:40:00;;;;;;;45.67;16.23;;;;;;;1.44;96.36;99089.84;3519529;28;20043;-65
2021/03/13 05:41:42;;;;;;;68.28;24.85;;;;;;;1.46;96.53;99101.00;3524177;28;20055;-64
2021/03/13 05:43:23;;;;;;;50.22;20.02;;;;;;;1.48;96.82;99103.63;3514838;28;20051;-64
2021/03/13 05:45:07;;;;;;;69.40;26.60;;;;;;;1.49;96.68;99103.66;3513687;28;20074;-63
2021/03/13 05:46:49;;;;;;;57.28;20.45;;;;;;;1.50;96.71;99107.97;3523485;28;20062;-62
2021/03/13 05:48:31;;;;;;;58.58;22.77;;;;;;;1.52;96.59;99105.47;3521788;28;20055;-61
2021/03/13 05:50:14;;;;;;;71.90;26.23;;;;;;;1.55;96.72;99110.72;3525531;28;20055;-61
2021/03/13 05:51:56;;;;;;;79.43;28.50;;;;;;;1.55;96.75;99114.16;3520107;28;20052;-61
2021/03/13 05:53:39;;;;;;;56.65;22.08;;;;;;;1.58;96.53;99122.75;3523898;28;20048;-60
2021/03/13 05:55:21;;;;;;;63.70;22.88;;;;;;;1.62;96.69;99116.94;3521915;28;20566;-59
2021/03/13 05:57:07;;;;;;;70.38;24.15;;;;;;;1.64;96.58;99121.31;3523027;28;20047;-60
2021/03/13 05:58:48;;;;;;;74.10;27.67;;;;;;;1.67;96.44;99121.44;3512037;28;20059;-59
2021/03/13 06:00:30;;;;;;;76.47;27.95;;;;;;;1.69;96.68;99121.47;3516067;28;20104;-60
2021/03/13 06:02:11;;;;;;;72.95;26.38;;;;;;;1.71;96.58;99122.44;3525064;28;20048;-59
2021/03/13 06:03:57;;;;;;;75.82;26.88;;;;;;;1.72;96.24;99125.06;3521650;28;20046;-58
2021/03/13 06:05:40;;;;;;;58.08;23.00;;;;;;;1.74;96.53;99137.88;3521773;28;20055;-58
2021/03/13 06:07:23;;;;;;;62.78;24.88;;;;;;;1.76;96.28;99141.41;3523317;28;20039;-61
2021/03/13 06:09:07;;;;;;;62.97;24.70;;;;;;;1.80;96.37;99140.69;3520173;28;20051;-60
2021/03/13 06:10:49;;;;;;;61.97;24.40;;;;;;;1.84;96.45;99144.25;3525046;28;20077;-58
2021/03/13 06:12:30;;;;;;;46.67;20.13;;;;;;;1.90;96.60;99147.03;3514807;28;20124;-60
2021/03/13 06:14:12;;;;;;;61.47;23.83;;;;;;;1.94;96.34;99156.59;3519192;28;20059;-59
2021/03/13 06:15:54;;;;;;;60.10;23.00;;;;;;;1.98;96.49;99155.03;3521977;28;20047;-61
2021/03/13 06:17:58;;;;;;;66.72;24.92;;;;;;;2.01;96.05;99153.47;3522192;28;20050;-58
2021/03/13 06:19:48;;;;;;;54.47;23.15;;;;;;;2.01;96.00;99158.56;3505244;28;20059;-61
2021/03/13 06:21:32;;;;;;;47.17;21.08;;;;;;;2.06;96.11;99157.06;3518590;28;20175;-60
2021/03/13 06:23:15;;;;;;;49.28;20.70;;;;;;;2.10;95.78;99156.38;3522736;28;20051;-60
2021/03/13 06:25:16;;;;;;;57.22;22.48;;;;;;;2.18;95.75;99163.47;3521328;28;20454;-60
2021/03/13 06:26:59;;;;;;;58.28;21.98;;;;;;;2.23;95.75;99167.06;3521310;28;20048;-60
2021/03/13 06:28:40;;;;;;;53.95;21.67;;;;;;;2.33;95.64;99167.47;3524789;28;20051;-58
2021/03/13 06:30:26;;;;;;;40.45;18.27;;;;;;;2.44;95.56;99167.88;3521085;28;20089;-60
2021/03/13 06:32:10;;;;;;;42.05;18.38;;;;;;;2.51;95.28;99163.88;3523858;28;20055;-60
2021/03/13 06:34:05;;;;;;;49.42;20.15;;;;;;;2.58;95.12;99160.72;3522651;28;20084;-59
2021/03/13 06:35:47;;;;;;;39.80;17.83;;;;;;;2.66;94.72;99166.13;3521049;28;20420;-59
2021/03/13 06:37:31;;;;;;;45.78;19.90;;;;;;;2.70;94.48;99160.31;3524826;28;20051;-59
2021/03/13 06:39:13;;;;;;;44.67;20.17;;;;;;;2.75;94.25;99163.03;3520984;28;20050;-59
2021/03/13 06:40:56;;;;;;;42.95;19.75;;;;;;;2.82;93.85;99168.44;3523855;28;20060;-60
2021/03/13 06:42:38;;;;;;;35.60;15.93;;;;;;;2.90;93.88;99167.00;3521842;28;20063;-60
2021/03/13 06:44:19;;;;;;;42.00;18.00;;;;;;;2.93;92.83;99166.28;3522275;28;20059;-60
2021/03/13 06:46:04;;;;;;;41.65;19.17;;;;;;;3.01;93.13;99170.00;3523090;28;20047;-59
2021/03/13 06:47:46;;;;;;;39.15;17.38;;;;;;;3.09;92.78;99168.56;3519279;28;20055;-61
2021/03/13 06:49:27;;;;;;;30.05;16.38;;;;;;;3.13;91.62;99166.97;3510476;28;20044;-60
2021/03/13 06:51:26;;;;;;;33.88;15.68;;;;;;;3.20;91.34;99162.94;3519727;28;20083;-60
2021/03/13 06:53:09;;;;;;;30.95;15.32;;;;;;;3.22;90.78;99151.94;3522608;28;20058;-60
2021/03/13 06:54:51;;;;;;;29.83;13.85;;;;;;;3.26;90.53;99166.59;3522180;28;20043;-61
2021/03/13 06:56:34;;;;;;;35.35;16.20;;;;;;;3.27;89.94;99159.75;3520796;28;20043;-59
2021/03/13 06:58:15;;;;;;;31.02;16.00;;;;;;;3.35;90.24;99160.91;3524639;28;20055;-58
2021/03/13 07:00:00;;;;;;;32.25;16.27;;;;;;;3.43;90.01;99166.28;3520912;28;20432;-57
2021/03/13 07:01:41;;;;;;;33.55;16.48;;;;;;;3.56;90.02;99158.19;3523825;28;20112;-57
2021/03/13 07:03:23;;;;;;;35.42;17.88;;;;;;;3.62;88.79;99152.38;3512525;28;20062;-57
2021/03/13 07:05:09;;;;;;;37.28;18.27;;;;;;;3.70;88.32;99158.66;3512294;28;20500;-57
2021/03/13 07:06:50;;;;;;;37.75;18.35;;;;;;;3.78;88.35;99156.31;3511194;28;20052;-58
2021/03/13 07:08:33;;;;;;;34.22;17.30;;;;;;;3.79;87.79;99153.81;3514883;28;20048;-57
2021/03/13 07:10:14;;;;;;;40.83;21.77;;;;;;;3.81;87.93;99154.72;3524367;28;20055;-57
2021/03/13 07:11:55;;;;;;;31.77;15.95;;;;;;;3.92;88.57;99161.91;3519354;28;20058;-57
2021/03/13 07:13:38;;;;;;;35.85;17.48;;;;;;;3.90;86.88;99158.41;3522013;28;20047;-56
2021/03/13 07:15:21;;;;;;;33.90;18.45;;;;;;;3.96;87.64;99145.78;3511713;28;20569;-55
2021/03/13 07:17:03;;;;;;;56.90;26.27;;;;;;;4.04;86.53;99155.44;3512279;28;20048;-51
2021/03/13 07:18:45;;;;;;;92.53;38.05;;;;;;;4.08;86.11;99147.84;3523654;28;20629;-53
2021/03/13 07:20:28;;;;;;;47.03;23.50;;;;;;;4.11;85.88;99151.38;3520563;28;20535;-51
2021/03/13 07:22:11;;;;;;;43.40;19.00;;;;;;;4.15;85.67;99155.78;3524118;28;20516;-51
2021/03/13 07:23:55;;;;;;;42.20;18.35;;;;;;;4.28;86.56;99161.28;3519577;28;20066;-56
2021/03/13 07:25:37;;;;;;;41.38;19.33;;;;;;;4.28;84.92;99159.59;3521805;28;20087;-55
2021/03/13 07:27:21;;;;;;;34.63;19.02;;;;;;;4.21;84.27;99158.56;3521606;28;20100;-52
2021/03/13 07:29:04;;;;;;;38.35;18.80;;;;;;;4.25;84.78;99153.50;3520505;28;20051;-49
2021/03/13 07:30:46;;;;;;;42.97;20.02;;;;;;;4.35;85.24;99160.66;3524190;28;20051;-48
2021/03/13 07:32:28;;;;;;;33.67;19.10;;;;;;;4.48;84.99;99155.06;3520540;28;20055;-53
2021/03/13 07:34:12;;;;;;;35.88;17.60;;;;;;;4.51;83.22;99160.31;3523312;28;20063;-54
2021/03/13 07:35:54;;;;;;;32.63;15.82;;;;;;;4.56;84.01;99163.00;3512500;28;20496;-49
2021/03/13 07:37:40;;;;;;;37.05;17.42;;;;;;;4.53;84.09;99163.78;3511115;28;20055;-51
2021/03/13 07:39:23;;;;;;;33.33;17.45;;;;;;;4.50;82.80;99166.25;3521825;28;20048;-50
2021/03/13 07:41:08;;;;;;;30.58;15.93;;;;;;;4.61;84.35;99156.28;3520265;28;20054;-50
2021/03/13 07:42:50;;;;;;;37.88;17.83;;;;;;;4.69;83.10;99159.97;3524320;28;20055;-49
2021/03/13 07:44:32;;;;;;;32.85;15.82;;;;;;;4.82;82.00;99145.75;3520314;28;20043;-50
2021/03/13 07:46:13;;;;;;;34.58;16.73;;;;;;;4.97;82.43;99158.16;3523156;28;20079;-49
2021/03/13 07:47:57;;;;;;;29.38;14.95;;;;;;;5.11;81.56;99150.81;3521330;28;20079;-48
2021/03/13 07:49:39;;;;;;;29.42;16.85;;;;;;;5.11;80.78;99158.53;3520163;28;20247;-48
2021/03/13 07:51:21;;;;;;;28.35;14.00;;;;;;;5.06;81.20;99158.44;3510580;28;20501;-49
2021/03/13 07:53:05;;;;;;;28.92;15.30;;;;;;;5.07;82.01;99156.72;3513485;28;20051;-48
2021/03/13 07:54:50;;;;;;;30.92;14.02;;;;;;;5.08;81.71;99161.03;3509902;28;20059;-48
2021/03/13 07:56:34;;;;;;;26.70;14.20;;;;;;;5.11;81.73;99156.84;3518570;28;20055;-48
2021/03/13 07:58:16;;;;;;;34.08;17.33;;;;;;;5.07;80.79;99164.44;3522934;28;20430;-52
2021/03/13 07:59:57;;;;;;;30.05;15.95;;;;;;;5.04;81.18;99169.47;3521220;28;20052;-53
2021/03/13 08:01:47;;;;;;;36.28;18.05;;;;;;;5.04;82.28;99162.66;3519008;28;20052;-54